Time;durP1;ratioP1;P1;durP2;ratioP2;P2;SDS_P1;SDS_P2;PMS_P1;PMS_P2;Temp;Humidity;BMP_temperature;BMP_pressure;BME280_temperature;BME280_humidity;BME280_pressure;Samples;Min_cycle;Max_cycle;Signal;HPM_P1;HPM_P2
2023/04/18 00:00:19;;;;;;;3.33;2.93;;;12.90;99.90;;;13.03;70.25;94404.41;5077850;28;20537;-56
2023/04/18 00:02:47;;;;;;;2.10;1.93;;;12.90;99.90;;;13.01;70.29;94400.28;5073894;28;20475;-57
2023/04/18 00:05:16;;;;;;;2.70;2.50;;;12.90;99.90;;;12.98;70.19;94401.47;5079101;28;20450;-62
2023/04/18 00:07:45;;;;;;;5.10;2.53;;;12.90;99.90;;;12.97;70.21;94399.78;5074175;28;20498;-57
2023/04/18 00:10:13;;;;;;;5.63;2.50;;;12.90;99.90;;;12.96;70.31;94397.31;5077426;28;20912;-57
2023/04/18 00:12:40;;;;;;;2.17;2.07;;;12.90;99.90;;;12.94;70.38;94394.84;5076773;28;20524;-56
2023/04/18 00:15:09;;;;;;;4.80;2.37;;;12.90;99.90;;;12.93;70.69;94392.38;5075898;28;20453;-57
2023/04/18 00:17:38;;;;;;;3.10;2.17;;;12.80;99.90;;;12.92;71.31;94396.84;5080219;28;20493;-55
2023/04/18 00:20:09;;;;;;;2.10;2.00;;;12.80;99.90;;;12.88;71.20;94401.59;5074428;28;20463;-61
2023/04/18 00:22:41;;;;;;;2.80;2.60;;;12.80;99.90;;;12.87;71.49;94399.97;5078120;28;20508;-61
2023/04/18 00:25:10;;;;;;;3.57;2.87;;;12.80;99.90;;;12.86;70.76;94400.16;5073521;28;20449;-62
2023/04/18 00:27:38;;;;;;;3.00;2.40;;;12.70;99.90;;;12.87;71.03;94393.84;5074333;28;20581;-61
2023/04/18 00:30:06;;;;;;;3.33;2.63;;;12.70;99.90;;;12.87;70.92;94399.97;5075284;28;20455;-56
2023/04/18 00:32:33;;;;;;;3.73;1.90;;;12.80;99.90;;;12.90;71.46;94398.81;5071203;28;20487;-58
2023/04/18 00:35:01;;;;;;;2.53;2.33;;;12.80;99.90;;;12.90;71.31;94391.72;5075099;28;20501;-56
2023/04/18 00:37:29;;;;;;;2.87;2.67;;;12.80;99.90;;;12.91;71.11;94393.34;5072647;28;20472;-61
2023/04/18 00:39:56;;;;;;;8.80;2.30;;;12.80;99.90;;;12.93;70.91;94395.00;5073096;28;20451;-63
2023/04/18 00:42:26;;;;;;;2.20;2.10;;;12.80;99.90;;;12.93;71.09;94392.38;5076393;28;20473;-61
2023/04/18 00:44:54;;;;;;;2.47;2.37;;;12.80;99.90;;;12.94;71.05;94397.50;5071803;28;20455;-57
2023/04/18 00:47:21;;;;;;;2.60;2.47;;;12.80;99.90;;;12.91;70.93;94396.00;5076476;28;20869;-57
2023/04/18 00:49:49;;;;;;;2.73;2.53;;;12.80;99.90;;;12.90;71.32;94386.44;5072538;28;20458;-60
2023/04/18 00:52:16;;;;;;;3.57;3.33;;;12.80;99.90;;;12.89;71.73;94387.44;5075052;28;20532;-60
2023/04/18 00:54:43;;;;;;;2.70;2.50;;;12.80;99.90;;;12.85;71.91;94383.47;5070451;28;21119;-56
2023/04/18 00:57:11;;;;;;;3.10;2.90;;;12.80;99.90;;;12.81;71.55;94379.53;5076156;28;20463;-55
2023/04/18 00:59:39;;;;;;;8.80;5.60;;;12.80;99.90;;;12.78;72.07;94385.13;5074671;28;20450;-57
2023/04/18 01:02:07;;;;;;;3.63;3.40;;;12.70;99.90;;;12.76;72.21;94387.09;5076986;28;20646;-56
2023/04/18 01:04:34;;;;;;;3.90;3.70;;;12.70;99.90;;;12.76;72.21;94381.81;5077018;28;21044;-60
2023/04/18 01:07:02;;;;;;;7.70;4.70;;;12.70;99.90;;;12.76;72.22;94384.44;5075566;28;20474;-57
2023/04/18 01:09:29;;;;;;;5.77;5.27;;;12.70;99.90;;;12.76;72.18;94378.38;5073027;28;20477;-56
2023/04/18 01:11:57;;;;;;;4.60;4.20;;;12.70;99.90;;;12.78;72.51;94381.66;5074911;28;21021;-60
2023/04/18 01:14:24;;;;;;;9.20;4.57;;;12.70;99.90;;;12.77;72.52;94372.91;5076812;28;20464;-60
2023/04/18 01:16:53;;;;;;;5.57;5.10;;;12.70;99.90;;;12.78;72.80;94381.66;5074181;28;20558;-60
2023/04/18 01:19:22;;;;;;;6.83;5.30;;;12.60;99.90;;;12.78;72.46;94379.84;5076291;28;20470;-57
2023/04/18 01:21:52;;;;;;;4.93;4.60;;;12.70;99.90;;;12.77;72.60;94372.91;5079054;28;20486;-56
2023/04/18 01:24:23;;;;;;;5.77;5.27;;;12.70;99.90;;;12.78;72.67;94369.31;5081346;28;20448;-58
2023/04/18 01:26:50;;;;;;;7.43;5.17;;;12.70;99.90;;;12.77;72.77;94375.56;5077194;28;20477;-56
2023/04/18 01:29:18;;;;;;;6.63;5.30;;;12.70;99.90;;;12.76;72.35;94371.25;5079912;28;20547;-58
2023/04/18 01:31:45;;;;;;;6.70;6.10;;;12.70;99.90;;;12.72;73.04;94376.06;5070974;28;20827;-56
2023/04/18 01:34:13;;;;;;;6.43;5.40;;;12.60;99.90;;;12.69;73.32;94370.28;5079564;28;20553;-61
2023/04/18 01:36:41;;;;;;;6.60;5.50;;;12.60;99.90;;;12.67;73.00;94380.16;5076375;28;20473;-60
2023/04/18 01:39:08;;;;;;;6.83;6.23;;;12.60;99.90;;;12.68;73.13;94368.63;5081188;28;20878;-63
2023/04/18 01:41:37;;;;;;;6.10;5.53;;;12.60;99.90;;;12.68;73.19;94373.91;5077528;28;20510;-60
2023/04/18 01:44:05;;;;;;;5.83;5.23;;;12.60;99.90;;;12.69;73.41;94372.94;5081903;28;20455;-58
2023/04/18 01:46:33;;;;;;;7.87;6.57;;;12.60;99.90;;;12.68;73.34;94380.00;5077438;28;21139;-61
2023/04/18 01:49:00;;;;;;;10.80;9.77;;;12.60;99.90;;;12.68;73.98;94374.72;5080424;28;20458;-61
2023/04/18 01:51:27;;;;;;;10.90;8.00;;;12.60;99.90;;;12.66;73.57;94368.78;5079871;28;20462;-60
2023/04/18 01:53:55;;;;;;;11.07;8.20;;;12.60;99.90;;;12.65;73.66;94368.97;5075661;28;20469;-56
2023/04/18 01:56:22;;;;;;;10.67;9.17;;;12.60;99.90;;;12.63;73.93;94368.31;5075232;28;20555;-56
2023/04/18 01:58:51;;;;;;;9.43;8.23;;;12.50;99.90;;;12.61;74.11;94368.47;5078448;28;20449;-61
2023/04/18 02:01:19;;;;;;;12.10;8.67;;;12.50;99.90;;;12.60;73.74;94366.00;5081685;28;20481;-62
2023/04/18 02:03:46;;;;;;;12.83;9.10;;;12.50;99.90;;;12.60;73.75;94368.63;5075055;28;20465;-60
2023/04/18 02:06:13;;;;;;;11.37;9.30;;;12.50;99.90;;;12.60;73.77;94368.63;5078898;28;20812;-56
2023/04/18 02:08:41;;;;;;;14.80;10.07;;;12.50;99.90;;;12.61;73.80;94372.91;5072421;28;20447;-57
2023/04/18 02:11:08;;;;;;;11.70;8.63;;;12.50;99.90;;;12.60;74.14;94366.81;5075367;28;20469;-61
2023/04/18 02:13:35;;;;;;;13.27;9.90;;;12.50;99.90;;;12.58;73.76;94367.97;5075168;28;20574;-59
2023/04/18 02:16:05;;;;;;;10.77;9.20;;;12.50;99.90;;;12.58;74.49;94365.31;5078258;28;20458;-57
2023/04/18 02:18:33;;;;;;;11.43;9.07;;;12.50;99.90;;;12.57;73.96;94376.88;5077581;28;20562;-57
2023/04/18 02:21:00;;;;;;;12.90;8.73;;;12.50;99.90;;;12.55;73.95;94372.59;5080922;28;20921;-57
2023/04/18 02:23:28;;;;;;;9.70;8.47;;;12.50;99.90;;;12.54;73.99;94368.28;5075859;28;21054;-62
2023/04/18 02:25:55;;;;;;;11.07;8.73;;;12.50;99.90;;;12.53;74.77;94369.28;5080098;28;20495;-60
2023/04/18 02:28:22;;;;;;;9.80;8.00;;;12.50;99.90;;;12.52;74.08;94374.75;5076236;28;20836;-61
2023/04/18 02:30:49;;;;;;;11.87;8.43;;;12.50;99.90;;;12.50;74.06;94382.81;5070765;28;20443;-57
2023/04/18 02:33:18;;;;;;;11.17;9.17;;;12.50;99.90;;;12.45;74.09;94379.81;5077376;28;20493;-55
2023/04/18 02:35:46;;;;;;;11.33;9.67;;;12.40;99.90;;;12.39;73.99;94375.19;5073568;28;20473;-61
2023/04/18 02:38:13;;;;;;;11.70;9.33;;;12.40;99.90;;;12.38;74.38;94374.38;5076516;28;20986;-61
2023/04/18 02:40:40;;;;;;;9.40;8.40;;;12.30;99.90;;;12.39;74.38;94383.09;5079384;28;21173;-58
2023/04/18 02:43:08;;;;;;;13.70;9.63;;;12.30;99.90;;;12.39;75.12;94385.75;5076250;28;20478;-57
2023/04/18 02:45:35;;;;;;;14.37;11.37;;;12.30;99.90;;;12.32;75.49;94390.03;5081356;28;20576;-60
2023/04/18 02:48:02;;;;;;;13.00;10.47;;;12.30;99.90;;;12.29;75.64;94387.72;5076943;28;20471;-63
2023/04/18 02:50:31;;;;;;;16.63;10.90;;;12.20;99.90;;;12.26;75.15;94380.97;5079890;28;20453;-57
2023/04/18 02:52:58;;;;;;;20.93;11.13;;;12.20;99.90;;;12.26;75.16;94385.41;5075769;28;20498;-56
2023/04/18 02:55:26;;;;;;;14.23;11.57;;;12.20;99.90;;;12.24;75.37;94380.31;5073133;28;20454;-57
2023/04/18 02:57:53;;;;;;;16.23;12.33;;;12.20;99.90;;;12.23;75.89;94383.09;5074668;28;20470;-62
2023/04/18 03:00:26;;;;;;;22.63;13.33;;;12.20;99.90;;;12.20;75.53;94377.16;5080556;28;20450;-60
2023/04/18 03:02:54;;;;;;;16.20;13.30;;;12.10;99.90;;;12.18;75.88;94373.03;5075966;28;20470;-57
2023/04/18 03:05:22;;;;;;;15.37;12.13;;;12.10;99.90;;;12.16;76.34;94383.75;5078111;28;20450;-60
2023/04/18 03:07:51;;;;;;;17.50;12.60;;;12.10;99.90;;;12.15;75.67;94383.91;5071464;28;20852;-62
2023/04/18 03:10:18;;;;;;;16.23;12.67;;;12.10;99.90;;;12.15;75.57;94382.09;5078390;28;20466;-57
2023/04/18 03:12:46;;;;;;;16.33;13.33;;;12.10;99.90;;;12.18;75.97;94394.94;5075637;28;20613;-62
2023/04/18 03:15:14;;;;;;;19.33;13.97;;;12.10;99.90;;;12.20;75.71;94392.16;5075600;28;20473;-59
2023/04/18 03:17:41;;;;;;;18.23;12.90;;;12.10;99.90;;;12.24;75.32;94396.13;5078290;28;20829;-61
2023/04/18 03:20:11;;;;;;;19.83;12.73;;;12.10;99.90;;;12.26;75.01;94382.78;5073134;28;20470;-61
2023/04/18 03:22:38;;;;;;;15.20;12.10;;;12.20;99.90;;;12.28;75.76;94399.25;5077193;28;20474;-56
2023/04/18 03:25:08;;;;;;;14.23;12.00;;;12.20;99.90;;;12.28;75.89;94401.88;5074797;28;20448;-61
2023/04/18 03:27:36;;;;;;;18.93;12.30;;;12.20;99.90;;;12.27;75.94;94397.59;5076737;28;20467;-56
2023/04/18 03:30:03;;;;;;;17.20;11.23;;;12.20;99.90;;;12.26;76.87;94401.25;5073273;28;20496;-62
2023/04/18 03:32:32;;;;;;;27.87;13.40;;;12.20;99.90;;;12.28;75.88;94410.63;5074069;28;20487;-57
2023/04/18 03:34:59;;;;;;;23.80;13.37;;;12.20;99.90;;;12.30;75.93;94416.56;5074681;28;20489;-58
2023/04/18 03:37:27;;;;;;;19.00;13.57;;;12.20;99.90;;;12.32;75.61;94425.13;5072972;28;20471;-57
2023/04/18 03:39:54;;;;;;;19.10;13.93;;;12.20;99.90;;;12.31;75.93;94414.75;5075837;28;20455;-55
2023/04/18 03:42:23;;;;;;;19.73;15.43;;;12.20;99.90;;;12.31;75.69;94420.03;5078087;28;20548;-57
2023/04/18 03:44:50;;;;;;;21.07;15.63;;;12.20;99.90;;;12.31;75.72;94420.03;5074504;28;20447;-65
2023/04/18 03:47:17;;;;;;;18.77;15.37;;;12.20;99.90;;;12.32;76.21;94416.41;5078567;28;20965;-56
2023/04/18 03:49:45;;;;;;;20.20;15.10;;;12.20;99.90;;;12.33;75.42;94418.88;5073872;28;20961;-58
2023/04/18 03:52:12;;;;;;;19.40;14.90;;;12.30;99.90;;;12.33;75.49;94413.63;5075672;28;20474;-57
2023/04/18 03:54:39;;;;;;;18.50;15.03;;;12.30;99.90;;;12.34;75.63;94409.97;5070359;28;20476;-57
2023/04/18 03:57:07;;;;;;;18.20;13.93;;;12.20;99.90;;;12.34;75.48;94417.88;5076611;28;20478;-61
2023/04/18 03:59:35;;;;;;;16.50;13.43;;;12.30;99.90;;;12.35;75.85;94408.19;5077782;28;20915;-62
2023/04/18 04:02:03;;;;;;;17.63;13.60;;;12.30;99.90;;;12.35;75.36;94416.09;5075019;28;20519;-56
2023/04/18 04:04:30;;;;;;;18.47;14.60;;;12.30;99.90;;;12.35;75.25;94414.28;5076794;28;20957;-56
2023/04/18 04:06:57;;;;;;;20.20;12.87;;;12.30;99.90;;;12.36;75.61;94417.72;5076743;28;20539;-59
2023/04/18 04:09:25;;;;;;;13.50;11.30;;;12.30;99.90;;;12.35;75.45;94416.91;5075082;28;20563;-68
2023/04/18 04:11:52;;;;;;;14.50;12.10;;;12.30;99.90;;;12.35;75.64;94421.38;5073890;28;20493;-62
2023/04/18 04:14:20;;;;;;;13.83;12.40;;;12.20;99.90;;;12.33;75.45;94426.81;5067924;28;20498;-58
2023/04/18 04:16:49;;;;;;;15.70;11.70;;;12.20;99.90;;;12.33;75.15;94423.31;5073683;28;20489;-60
2023/04/18 04:19:16;;;;;;;14.20;12.10;;;12.20;99.90;;;12.32;75.83;94421.69;5076703;28;20870;-56
2023/04/18 04:21:43;;;;;;;13.90;11.70;;;12.20;99.90;;;12.32;75.75;94422.50;5070186;28;20490;-61
2023/04/18 04:24:12;;;;;;;12.73;10.93;;;12.20;99.90;;;12.34;75.51;94427.63;5073808;28;20466;-58
2023/04/18 04:26:41;;;;;;;14.73;12.50;;;12.20;99.90;;;12.30;75.24;94428.91;5076300;28;20913;-57
2023/04/18 04:29:10;;;;;;;17.60;12.77;;;12.30;99.90;;;12.28;75.50;94434.34;5071356;28;20536;-61
2023/04/18 04:31:37;;;;;;;13.10;11.70;;;12.20;99.90;;;12.26;75.55;94432.88;5073454;28;20502;-56
2023/04/18 04:34:07;;;;;;;16.60;11.60;;;12.20;99.90;;;12.26;75.64;94440.78;5067169;28;20487;-56
2023/04/18 04:36:35;;;;;;;13.97;12.37;;;12.20;99.90;;;12.26;75.83;94438.16;5067455;28;20471;-60
2023/04/18 04:39:04;;;;;;;15.03;11.20;;;12.20;99.90;;;12.30;76.02;94440.31;5066703;28;20590;-62
2023/04/18 04:41:31;;;;;;;14.43;12.43;;;12.20;99.90;;;12.33;75.99;94440.00;5069862;28;20489;-61
2023/04/18 04:44:00;;;;;;;15.43;12.17;;;12.20;99.90;;;12.35;76.14;94438.00;5073230;28;20470;-61
2023/04/18 04:46:29;;;;;;;14.90;13.30;;;12.20;99.90;;;12.38;75.97;94439.50;5070864;28;20451;-60
2023/04/18 04:48:56;;;;;;;12.50;11.20;;;12.30;99.90;;;12.40;75.78;94441.97;5069312;28;20565;-57
2023/04/18 04:51:26;;;;;;;16.87;12.90;;;12.30;99.90;;;12.44;75.78;94448.56;5071136;28;20458;-65
2023/04/18 04:53:54;;;;;;;14.90;11.73;;;12.30;99.90;;;12.47;75.77;94451.72;5075703;28;21039;-58
2023/04/18 04:56:21;;;;;;;16.93;13.97;;;12.40;99.90;;;12.50;75.37;94447.91;5071529;28;20454;-57
2023/04/18 04:58:49;;;;;;;16.00;11.83;;;12.40;99.90;;;12.52;75.37;94456.50;5082191;28;20453;-57
2023/04/18 05:01:16;;;;;;;12.50;11.20;;;12.40;99.90;;;12.53;75.10;94452.88;5079111;28;20452;-62
2023/04/18 05:03:44;;;;;;;13.43;11.07;;;12.40;99.90;;;12.53;74.73;94450.22;5075476;28;20967;-57
2023/04/18 05:06:11;;;;;;;13.00;11.60;;;12.40;99.90;;;12.52;74.65;94453.88;5078480;28;20452;-61
2023/04/18 05:08:40;;;;;;;17.30;13.83;;;12.40;99.90;;;12.55;74.81;94457.00;5079918;28;20456;-61
2023/04/18 05:11:07;;;;;;;14.93;12.40;;;12.50;99.90;;;12.61;74.67;94454.69;5078804;28;20534;-57
2023/04/18 05:13:34;;;;;;;15.03;13.07;;;12.50;99.90;;;12.64;74.56;94455.22;5078766;28;20513;-55
2023/04/18 05:16:02;;;;;;;22.70;12.87;;;12.50;99.90;;;12.68;74.61;94458.34;5078486;28;20454;-57
2023/04/18 05:18:30;;;;;;;16.60;13.73;;;12.60;99.90;;;12.71;74.26;94458.84;5080486;28;20471;-61
2023/04/18 05:20:57;;;;;;;16.33;13.30;;;12.60;99.90;;;12.73;74.46;94462.16;5078809;28;20454;-58
2023/04/18 05:23:24;;;;;;;18.63;14.43;;;12.60;99.90;;;12.74;74.82;94462.97;5080645;28;20479;-62
2023/04/18 05:25:53;;;;;;;23.53;14.90;;;12.70;99.90;;;12.76;74.41;94463.63;5078464;28;20452;-62
2023/04/18 05:28:20;;;;;;;18.13;14.17;;;12.70;99.90;;;12.78;74.42;94464.31;5077267;28;20520;-63
2023/04/18 05:30:48;;;;;;;15.93;13.90;;;12.70;99.90;;;12.78;74.19;94459.03;5073119;28;20950;-63
2023/04/18 05:33:15;;;;;;;17.73;13.50;;;12.70;99.90;;;12.81;74.37;94468.41;5077561;28;20494;-56
2023/04/18 05:35:42;;;;;;;19.83;14.97;;;12.70;99.90;;;12.80;73.91;94467.59;5081016;28;20481;-57
2023/04/18 05:38:09;;;;;;;18.33;14.33;;;12.70;99.90;;;12.76;73.87;94466.25;5077404;28;20470;-56
2023/04/18 05:40:37;;;;;;;19.40;13.80;;;12.70;99.90;;;12.76;74.23;94470.72;5080595;28;20450;-56
2023/04/18 05:43:05;;;;;;;20.40;15.47;;;12.60;99.90;;;12.76;74.10;94468.91;5078732;28;20990;-56
2023/04/18 05:45:33;;;;;;;19.00;15.60;;;12.70;99.90;;;12.74;74.21;94476.16;5079792;28;20450;-55
2023/04/18 05:48:00;;;;;;;23.93;14.90;;;12.70;99.90;;;12.72;74.32;94464.97;5078454;28;20462;-62
2023/04/18 05:50:28;;;;;;;17.10;14.27;;;12.70;99.90;;;12.77;74.30;94475.03;5076252;28;20458;-57
2023/04/18 05:52:57;;;;;;;17.20;14.50;;;12.70;99.90;;;12.76;74.09;94476.81;5075822;28;20490;-62
2023/04/18 05:55:25;;;;;;;18.13;14.37;;;12.70;99.90;;;12.78;74.31;94477.50;5078857;28;20523;-57
2023/04/18 05:57:52;;;;;;;17.80;14.00;;;12.70;99.90;;;12.82;73.62;94475.34;5077836;28;20471;-62
2023/04/18 06:00:22;;;;;;;18.77;13.93;;;12.70;99.90;;;12.83;73.62;94471.72;5081843;28;20458;-63
2023/04/18 06:02:49;;;;;;;20.53;12.77;;;12.70;99.90;;;12.85;73.15;94475.84;5078482;28;20474;-56
2023/04/18 06:05:17;;;;;;;17.70;14.00;;;12.80;99.90;;;12.88;73.60;94472.88;5080385;28;20458;-62
2023/04/18 06:07:44;;;;;;;20.70;13.53;;;12.80;99.90;;;12.97;73.19;94483.47;5077555;28;20463;-62
2023/04/18 06:10:12;;;;;;;17.90;13.07;;;12.80;99.90;;;13.02;73.74;94476.69;5081117;28;20454;-64
2023/04/18 06:12:39;;;;;;;23.60;14.57;;;12.90;99.90;;;13.13;73.32;94478.16;5079452;28;21025;-56
2023/04/18 06:15:08;;;;;;;20.63;13.87;;;13.00;99.90;;;13.22;72.99;94471.88;5080658;28;20457;-57
2023/04/18 06:17:37;;;;;;;13.07;10.90;;;13.00;99.90;;;13.33;72.20;94476.03;5075633;28;20470;-64
2023/04/18 06:20:06;;;;;;;14.03;12.50;;;13.10;99.90;;;13.40;72.24;94476.19;5081654;28;21080;-63
2023/04/18 06:22:33;;;;;;;15.43;12.43;;;13.20;99.90;;;13.45;72.28;94477.34;5075527;28;20467;-57
2023/04/18 06:25:01;;;;;;;22.23;13.67;;;13.30;99.90;;;13.49;71.18;94483.13;5081276;28;20484;-57
2023/04/18 06:27:28;;;;;;;19.20;14.67;;;13.30;99.90;;;13.52;71.17;94482.78;5078225;28;20470;-56
2023/04/18 06:29:55;;;;;;;19.70;14.90;;;13.40;99.90;;;13.57;71.26;94477.84;5077325;28;20473;-62
2023/04/18 06:32:23;;;;;;;15.30;13.53;;;13.40;99.90;;;13.68;71.74;94481.94;5073842;28;20469;-63
2023/04/18 06:34:51;;;;;;;18.13;13.47;;;13.50;99.90;;;13.79;71.09;94480.78;5077003;28;20498;-62
2023/04/18 06:37:19;;;;;;;20.53;13.93;;;13.60;99.90;;;13.81;70.35;94473.47;5077929;28;20474;-56
2023/04/18 06:39:46;;;;;;;379.77;48.33;;;13.70;99.90;;;13.78;70.30;94469.34;5077847;28;20476;-58
2023/04/18 06:42:13;;;;;;;173.43;30.93;;;13.70;99.90;;;13.80;70.48;94475.31;5077281;28;20532;-56
2023/04/18 06:44:41;;;;;;;657.70;94.87;;;13.70;99.90;;;13.83;70.57;94479.41;5078148;28;20931;-58
2023/04/18 06:47:09;;;;;;;21.67;13.77;;;13.70;99.90;;;13.82;70.40;94480.44;5076860;28;20888;-57
2023/04/18 06:49:37;;;;;;;34.20;14.80;;;13.70;99.90;;;13.80;70.51;94485.03;5074670;28;20500;-63
2023/04/18 06:52:06;;;;;;;15.30;13.70;;;13.70;99.90;;;13.79;70.16;94489.50;5078918;28;20947;-57
2023/04/18 06:54:33;;;;;;;14.97;11.10;;;13.70;99.90;;;13.80;70.01;94482.41;5077812;28;20498;-57
2023/04/18 06:57:02;;;;;;;18.17;12.83;;;13.70;99.90;;;13.84;70.10;94480.25;5079226;28;20545;-56
2023/04/18 06:59:29;;;;;;;18.90;15.40;;;13.80;99.90;;;13.92;69.67;94483.69;5075074;28;20524;-56
2023/04/18 07:01:57;;;;;;;20.37;14.87;;;13.80;99.90;;;13.98;68.90;94482.19;5075056;28;20463;-57
2023/04/18 07:04:25;;;;;;;20.67;13.97;;;13.80;99.90;;;14.04;69.58;94491.28;5075550;28;20493;-63
2023/04/18 07:06:52;;;;;;;21.77;15.17;;;13.90;99.90;;;14.16;69.83;94492.56;5079337;28;20482;-64
2023/04/18 07:09:21;;;;;;;24.33;13.70;;;14.00;99.90;;;14.35;69.37;94489.47;5077530;28;20478;-56
2023/04/18 07:11:49;;;;;;;17.40;13.60;;;14.20;99.90;;;14.51;68.29;94475.34;5078737;28;20473;-57
2023/04/18 07:14:18;;;;;;;12.63;11.30;;;14.30;99.90;;;14.62;67.76;94482.09;5074811;28;21034;-61
2023/04/18 07:16:46;;;;;;;13.70;11.60;;;14.40;99.90;;;14.69;66.66;94487.53;5081519;28;20462;-56
2023/04/18 07:19:13;;;;;;;12.20;10.90;;;14.50;99.90;;;14.70;66.33;94487.34;5074550;28;20553;-56
2023/04/18 07:21:42;;;;;;;13.57;10.27;;;14.60;99.90;;;14.71;65.66;94493.47;5081020;28;20493;-57
2023/04/18 07:24:10;;;;;;;11.53;9.60;;;14.60;99.90;;;14.72;65.88;94489.84;5073699;28;20451;-57
2023/04/18 07:26:38;;;;;;;10.83;9.50;;;14.60;99.90;;;14.69;65.37;94490.19;5080093;28;20463;-57
2023/04/18 07:29:06;;;;;;;12.40;10.47;;;14.60;99.90;;;14.71;65.44;94488.16;5068477;28;20526;-62
2023/04/18 07:31:34;;;;;;;11.40;9.90;;;14.60;99.90;;;14.73;64.93;94486.16;5074291;28;21013;-58
2023/04/18 07:34:01;;;;;;;10.10;8.97;;;14.60;99.90;;;14.75;64.79;94491.28;5073907;28;20522;-58
2023/04/18 07:36:29;;;;;;;13.60;9.97;;;14.60;99.90;;;14.76;64.41;94491.09;5079556;28;20992;-57
2023/04/18 07:38:56;;;;;;;10.37;8.80;;;14.60;99.90;;;14.76;64.27;94488.47;5073372;28;21139;-58
2023/04/18 07:41:23;;;;;;;12.30;10.27;;;14.60;99.90;;;14.76;64.22;94496.41;5079253;28;20454;-58
2023/04/18 07:43:52;;;;;;;13.37;11.07;;;14.60;99.90;;;14.76;63.89;94490.28;5074679;28;20473;-57
2023/04/18 07:46:19;;;;;;;12.33;10.13;;;14.60;99.90;;;14.78;64.00;94493.59;5077989;28;20446;-63
2023/04/18 07:48:47;;;;;;;14.20;11.23;;;14.60;99.90;;;14.80;63.89;94503.00;5075668;28;20674;-57
2023/04/18 07:51:14;;;;;;;10.23;8.60;;;14.60;99.90;;;14.81;63.53;94499.38;5073487;28;20466;-63
2023/04/18 07:53:42;;;;;;;13.73;10.20;;;14.70;99.90;;;14.82;63.31;94497.53;5077773;28;20497;-57
2023/04/18 07:56:11;;;;;;;11.10;8.50;;;14.70;99.90;;;14.81;63.24;94501.19;5074877;28;20451;-55
2023/04/18 07:58:38;;;;;;;14.03;9.80;;;14.70;99.90;;;14.78;62.27;94498.88;5077176;28;20442;-62
2023/04/18 08:01:12;;;;;;;14.60;8.07;;;14.70;99.90;;;14.77;62.67;94502.53;5078673;28;20457;-63
2023/04/18 08:03:40;;;;;;;9.53;8.53;;;14.70;99.90;;;14.74;62.77;94505.53;5075887;28;20434;-61
2023/04/18 08:06:08;;;;;;;13.50;8.93;;;14.60;99.90;;;14.73;62.55;94501.22;5076989;28;20812;-62
2023/04/18 08:08:35;;;;;;;12.30;9.47;;;14.60;99.90;;;14.73;62.46;94509.19;5076222;28;21043;-57
2023/04/18 08:11:03;;;;;;;11.33;9.50;;;14.60;99.90;;;14.74;62.37;94509.00;5075943;28;20493;-63
2023/04/18 08:13:30;;;;;;;12.17;9.53;;;14.60;99.90;;;14.78;62.56;94512.97;5079173;28;20458;-56
2023/04/18 08:15:58;;;;;;;11.70;9.03;;;14.60;99.90;;;14.83;62.29;94512.44;5074158;28;20439;-62
2023/04/18 08:18:27;;;;;;;14.53;9.33;;;14.70;99.90;;;14.86;61.74;94501.50;5078987;28;20571;-57
2023/04/18 08:20:54;;;;;;;11.30;9.60;;;14.70;99.90;;;14.86;61.39;94507.59;5072914;28;20463;-56
2023/04/18 08:23:22;;;;;;;13.60;9.07;;;14.70;99.90;;;14.90;61.65;94502.78;5077738;28;20569;-56
2023/04/18 08:25:49;;;;;;;22.53;8.27;;;14.80;99.90;;;14.96;61.67;94511.84;5074947;28;20477;-62
2023/04/18 08:28:17;;;;;;;19.30;8.40;;;14.80;99.90;;;15.01;61.23;94515.63;5075841;28;20533;-61
2023/04/18 08:30:47;;;;;;;9.40;6.90;;;14.90;99.90;;;15.08;60.68;94504.34;5072177;28;20462;-62
2023/04/18 08:33:15;;;;;;;9.13;7.80;;;14.90;99.80;;;15.17;60.07;94503.28;5074907;28;20489;-62
2023/04/18 08:35:43;;;;;;;8.83;5.77;;;15.00;99.30;;;15.27;59.75;94506.47;5077767;28;20521;-55
2023/04/18 08:38:11;;;;;;;11.37;5.67;;;15.10;99.10;;;15.40;59.96;94506.72;5076032;28;20480;-57
2023/04/18 08:40:38;;;;;;;62.87;9.43;;;15.20;99.20;;;15.59;58.19;94507.22;5075950;28;20442;-62
2023/04/18 08:43:08;;;;;;;7.30;5.80;;;15.40;97.80;;;15.79;58.47;94506.75;5074593;28;20494;-63
2023/04/18 08:45:35;;;;;;;5.97;5.47;;;15.60;98.30;;;15.93;57.53;94504.09;5077425;28;20904;-57
2023/04/18 08:48:03;;;;;;;6.87;6.20;;;15.70;97.20;;;16.08;57.21;94506.78;5074231;28;20546;-57
2023/04/18 08:50:31;;;;;;;6.83;6.07;;;15.90;97.10;;;16.22;56.54;94502.47;5073939;28;20875;-65
2023/04/18 08:53:00;;;;;;;19.40;8.53;;;16.00;96.50;;;16.34;56.12;94492.19;5070312;28;20486;-57
2023/04/18 08:55:27;;;;;;;14.43;7.00;;;16.20;95.80;;;16.48;54.42;94491.38;5076144;28;20569;-56
2023/04/18 08:57:55;;;;;;;35.73;8.70;;;16.30;94.60;;;16.56;55.37;94497.56;5073039;28;20589;-55
2023/04/18 09:00:22;;;;;;;8.10;6.17;;;16.40;95.10;;;16.61;55.48;94495.19;5079208;28;20461;-62
2023/04/18 09:02:55;;;;;;;12.17;6.53;;;16.40;94.90;;;16.60;54.33;94485.56;5072386;28;20467;-62
2023/04/18 09:05:23;;;;;;;18.40;7.60;;;16.40;94.00;;;16.61;53.76;94495.19;5077921;28;20829;-61
2023/04/18 09:07:52;;;;;;;18.10;8.47;;;16.50;93.60;;;16.59;55.11;94491.88;5073077;28;20546;-61
2023/04/18 09:10:29;;;;;;;7.47;6.57;;;16.40;94.40;;;16.58;55.13;94495.56;5077092;28;20552;-57
2023/04/18 09:12:57;;;;;;;7.00;6.40;;;16.40;94.60;;;16.63;54.77;94490.50;5074852;28;20462;-63
2023/04/18 09:15:27;;;;;;;10.50;6.47;;;16.50;94.30;;;16.63;56.08;94490.50;5073132;28;20526;-58
2023/04/18 09:17:56;;;;;;;7.37;6.67;;;16.50;95.30;;;16.60;56.56;94485.56;5071983;28;20661;-63
2023/04/18 09:20:34;;;;;;;7.47;6.60;;;16.40;95.60;;;16.51;55.71;94490.16;5075823;28;20958;-58
2023/04/18 09:23:02;;;;;;;7.77;6.67;;;16.30;95.20;;;16.39;55.01;94492.47;5076849;28;21015;-62
2023/04/18 09:25:34;;;;;;;7.13;6.33;;;16.30;94.70;;;16.19;55.59;94491.38;5075810;28;20508;-60
2023/04/18 09:28:03;;;;;;;6.90;6.30;;;16.10;94.70;;;15.98;56.29;94500.91;5074975;28;21027;-62
2023/04/18 09:30:35;;;;;;;6.77;6.07;;;15.90;95.00;;;15.79;57.28;94493.50;5069952;28;20473;-62
2023/04/18 09:33:04;;;;;;;6.97;6.27;;;15.70;96.10;;;15.64;58.05;94496.09;5069888;28;20477;-56
2023/04/18 09:35:31;;;;;;;11.73;6.63;;;15.50;96.70;;;15.47;58.73;94490.09;5072638;28;20491;-57
2023/04/18 09:37:58;;;;;;;7.57;6.00;;;15.40;97.10;;;15.35;59.17;94490.53;5079548;28;20480;-58
2023/04/18 09:40:26;;;;;;;8.40;5.40;;;15.20;97.50;;;15.25;59.19;94489.94;5074595;28;20517;-61
2023/04/18 09:42:55;;;;;;;6.70;5.90;;;15.10;97.70;;;15.21;59.69;94488.66;5080739;28;20531;-57
2023/04/18 09:45:23;;;;;;;6.43;5.47;;;15.10;98.10;;;15.14;59.83;94500.97;5077133;28;20455;-63
2023/04/18 09:47:51;;;;;;;6.10;5.60;;;15.00;98.30;;;15.06;59.67;94494.72;5079450;28;20542;-63
2023/04/18 09:50:19;;;;;;;5.00;4.60;;;14.90;98.20;;;14.95;60.73;94497.78;5075240;28;20447;-62
2023/04/18 09:52:47;;;;;;;4.87;4.47;;;14.90;99.00;;;14.90;60.38;94497.47;5080289;28;20466;-56
2023/04/18 09:55:16;;;;;;;3.93;3.00;;;14.80;98.90;;;14.85;60.78;94492.72;5077430;28;21050;-63
2023/04/18 09:57:45;;;;;;;3.53;2.30;;;14.70;98.90;;;14.81;60.46;94488.78;5079330;28;20463;-56
2023/04/18 10:00:20;;;;;;;4.07;2.40;;;14.70;99.00;;;14.80;61.29;94494.25;5078321;28;20458;-56
2023/04/18 10:02:54;;;;;;;1.90;1.80;;;14.70;99.50;;;14.87;61.09;94482.78;5074977;28;20527;-65
2023/04/18 10:05:25;;;;;;;3.00;1.40;;;14.70;99.60;;;14.99;60.78;94485.81;5080977;28;20446;-57
2023/04/18 10:07:52;;;;;;;1.60;1.50;;;14.80;99.50;;;15.04;60.32;94487.94;5077399;28;20498;-58
2023/04/18 10:10:20;;;;;;;2.90;0.77;;;14.80;99.20;;;15.08;59.76;94483.97;5080355;28;20458;-57
2023/04/18 10:12:49;;;;;;;1.13;1.03;;;14.90;98.60;;;15.16;60.22;94491.03;5075260;28;20818;-63